Time;durP1;ratioP1;P1;durP2;ratioP2;P2;SDS_P1;SDS_P2;PMS_P1;PMS_P2;Temp;Humidity;BMP_temperature;BMP_pressure;BME280_temperature;BME280_humidity;BME280_pressure;Samples;Min_cycle;Max_cycle;Signal;HPM_P1;HPM_P2
2023/02/06 00:01:13;;;;;;;23.33;10.50;;;3.00;99.90;;;;;;5060273;28;20468;-71
2023/02/06 00:03:41;;;;;;;24.53;10.60;;;3.00;99.90;;;;;;5059188;28;20894;-72
2023/02/06 00:06:08;;;;;;;26.77;10.60;;;2.90;99.90;;;;;;5063172;28;20470;-71
2023/02/06 00:08:35;;;;;;;31.30;11.83;;;2.90;99.90;;;;;;5060375;28;20931;-72
2023/02/06 00:11:06;;;;;;;35.80;11.10;;;2.80;99.90;;;;;;5055959;28;20949;-71
2023/02/06 00:13:33;;;;;;;26.37;11.23;;;2.90;99.90;;;;;;5058578;28;20770;-72
2023/02/06 00:16:00;;;;;;;20.03;10.90;;;2.90;99.90;;;;;;5057508;28;20474;-71
2023/02/06 00:18:27;;;;;;;24.17;11.13;;;2.90;99.90;;;;;;5056075;28;20456;-73
2023/02/06 00:20:54;;;;;;;31.00;11.83;;;2.80;99.90;;;;;;5054866;28;20486;-73
2023/02/06 00:23:21;;;;;;;29.70;11.27;;;2.80;99.90;;;;;;5062705;28;20474;-72
2023/02/06 00:25:48;;;;;;;28.93;12.47;;;2.80;99.90;;;;;;5058354;28;20467;-73
2023/02/06 00:28:16;;;;;;;26.33;11.20;;;2.70;99.90;;;;;;5055707;28;20498;-71
2023/02/06 00:30:47;;;;;;;22.63;11.70;;;2.70;99.90;;;;;;5055307;28;20967;-70
2023/02/06 00:33:14;;;;;;;37.00;12.00;;;2.70;99.90;;;;;;5056100;28;20498;-73
2023/02/06 00:35:41;;;;;;;45.33;14.03;;;2.60;99.90;;;;;;5057890;28;20804;-73
2023/02/06 00:38:09;;;;;;;30.93;13.03;;;2.50;99.90;;;;;;5064284;28;20451;-73
2023/02/06 00:40:36;;;;;;;23.50;12.07;;;2.50;99.90;;;;;;5056277;28;21037;-71
2023/02/06 00:43:03;;;;;;;29.20;12.90;;;2.40;99.90;;;;;;5056163;28;20498;-72
2023/02/06 00:45:33;;;;;;;27.70;13.60;;;2.40;99.90;;;;;;5059672;28;20483;-72
2023/02/06 00:48:00;;;;;;;24.40;12.07;;;2.40;99.90;;;;;;5054738;28;20534;-72
2023/02/06 00:50:26;;;;;;;28.90;13.13;;;2.40;99.90;;;;;;5052817;28;20815;-72
2023/02/06 00:52:54;;;;;;;25.77;12.20;;;2.30;99.90;;;;;;5052323;28;20499;-71
2023/02/06 00:55:20;;;;;;;30.57;13.60;;;2.40;99.90;;;;;;5060656;28;20980;-71
2023/02/06 00:57:47;;;;;;;28.60;12.80;;;2.50;99.90;;;;;;5055655;28;20847;-72
2023/02/06 01:00:15;;;;;;;29.87;12.57;;;2.40;99.90;;;;;;5055540;28;21006;-72
2023/02/06 01:02:44;;;;;;;32.53;13.17;;;2.30;99.90;;;;;;5062172;28;20940;-70
2023/02/06 01:05:10;;;;;;;31.03;13.13;;;2.40;99.90;;;;;;5053897;28;20470;-71
2023/02/06 01:07:39;;;;;;;29.77;13.20;;;2.30;99.90;;;;;;5054407;28;20822;-71
2023/02/06 01:10:07;;;;;;;37.67;15.17;;;2.20;99.90;;;;;;5052134;28;20464;-72
2023/02/06 01:12:34;;;;;;;53.10;14.60;;;2.20;99.90;;;;;;5056004;28;20471;-72
2023/02/06 01:15:02;;;;;;;36.23;13.30;;;2.30;99.90;;;;;;5053419;28;20850;-70
2023/02/06 01:17:30;;;;;;;37.50;14.07;;;2.30;99.90;;;;;;5059477;28;20463;-70
2023/02/06 01:19:59;;;;;;;27.10;13.07;;;2.20;99.90;;;;;;5056778;28;20466;-71
2023/02/06 01:22:26;;;;;;;41.23;14.47;;;2.10;99.90;;;;;;5058139;28;20455;-73
2023/02/06 01:24:53;;;;;;;32.13;15.17;;;2.10;99.90;;;;;;5052601;28;20462;-72
2023/02/06 01:27:20;;;;;;;23.50;13.90;;;2.10;99.90;;;;;;5059462;28;20464;-72
2023/02/06 01:29:47;;;;;;;29.07;12.50;;;2.10;99.90;;;;;;5054535;28;21044;-70
2023/02/06 01:32:14;;;;;;;32.43;13.60;;;2.10;99.90;;;;;;5060728;28;20463;-71
2023/02/06 01:34:41;;;;;;;37.53;13.60;;;2.10;99.90;;;;;;5059034;28;20560;-73
2023/02/06 01:37:09;;;;;;;26.90;13.70;;;2.10;99.90;;;;;;5058771;28;20498;-70
2023/02/06 01:39:37;;;;;;;31.07;13.17;;;2.10;99.90;;;;;;5058958;28;20467;-70
2023/02/06 01:42:05;;;;;;;32.37;13.87;;;2.10;99.90;;;;;;5057017;28;20486;-72
2023/02/06 01:44:33;;;;;;;36.13;14.20;;;2.10;99.90;;;;;;5052748;28;20464;-70
2023/02/06 01:47:00;;;;;;;29.80;12.63;;;2.10;99.90;;;;;;5050938;28;20471;-72
2023/02/06 01:49:30;;;;;;;33.33;12.20;;;2.00;99.90;;;;;;5060814;28;20462;-70
2023/02/06 01:52:05;;;;;;;29.93;13.23;;;2.10;99.90;;;;;;5056930;28;20460;-72
2023/02/06 01:54:34;;;;;;;26.20;11.83;;;2.10;99.90;;;;;;5060858;28;20486;-71
2023/02/06 01:57:04;;;;;;;32.63;12.83;;;2.00;99.90;;;;;;5055064;28;20467;-69
2023/02/06 01:59:31;;;;;;;31.67;12.90;;;2.00;99.90;;;;;;5053731;28;20479;-71
2023/02/06 02:01:58;;;;;;;31.80;13.97;;;2.00;99.90;;;;;;5054413;28;20541;-69
2023/02/06 02:04:28;;;;;;;36.97;13.37;;;2.00;99.90;;;;;;5054106;28;20529;-72
2023/02/06 02:07:02;;;;;;;39.67;14.93;;;1.80;99.90;;;;;;5059513;28;20459;-71
2023/02/06 02:09:29;;;;;;;39.07;14.87;;;1.70;99.90;;;;;;5055547;28;20466;-70
2023/02/06 02:11:58;;;;;;;37.17;15.20;;;1.60;99.90;;;;;;5053913;28;20937;-70
2023/02/06 02:14:24;;;;;;;30.90;14.80;;;1.60;99.90;;;;;;5049119;28;20487;-71
2023/02/06 02:17:02;;;;;;;34.73;15.57;;;1.50;99.90;;;;;;5062205;28;20467;-70
2023/02/06 02:20:10;;;;;;;31.00;14.70;;;1.50;99.90;;;;;;5054511;28;20467;-72
2023/02/06 02:23:00;;;;;;;32.17;15.67;;;1.50;99.90;;;;;;5053491;28;20462;-69
2023/02/06 02:26:06;;;;;;;36.23;16.27;;;1.40;99.90;;;;;;5047588;28;21990;-70
2023/02/06 02:29:30;;;;;;;26.43;15.13;;;1.20;99.90;;;;;;5055441;28;20463;-71
2023/02/06 02:32:16;;;;;;;25.83;16.50;;;1.00;99.90;;;;;;5031750;28;20467;-69
2023/02/06 02:35:05;;;;;;;27.33;15.60;;;0.90;99.90;;;;;;5051220;28;20494;-69
2023/02/06 02:37:48;;;;;;;25.40;16.40;;;0.70;99.90;;;;;;5052928;28;20469;-70
2023/02/06 02:40:20;;;;;;;32.87;15.97;;;0.70;99.90;;;;;;5056324;28;20473;-69
2023/02/06 02:42:54;;;;;;;46.87;17.80;;;0.80;99.90;;;;;;5060357;28;20484;-70
2023/02/06 02:45:24;;;;;;;29.30;16.00;;;0.80;99.90;;;;;;5052622;28;20464;-69
2023/02/06 02:47:58;;;;;;;33.50;17.23;;;0.80;99.90;;;;;;5056270;28;20462;-69
2023/02/06 02:50:28;;;;;;;25.00;15.10;;;0.80;99.90;;;;;;5055338;28;20458;-70
2023/02/06 02:52:55;;;;;;;21.47;14.80;;;0.70;99.90;;;;;;5053423;28;20467;-69
2023/02/06 02:55:23;;;;;;;29.50;14.20;;;0.70;99.90;;;;;;5056146;28;20900;-67
2023/02/06 02:57:53;;;;;;;27.67;15.50;;;0.60;99.90;;;;;;5053437;28;20477;-70
2023/02/06 03:00:22;;;;;;;37.20;15.87;;;0.60;99.90;;;;;;5057390;28;20490;-68
2023/02/06 03:02:52;;;;;;;40.93;16.67;;;0.50;99.90;;;;;;5053470;28;20528;-67
2023/02/06 03:05:23;;;;;;;35.80;16.47;;;0.60;99.90;;;;;;5051208;28;20954;-68
2023/02/06 03:07:59;;;;;;;36.27;16.20;;;0.60;99.90;;;;;;5056405;28;20569;-69
2023/02/06 03:10:33;;;;;;;22.20;14.50;;;0.60;99.90;;;;;;5048228;28;20467;-71
2023/02/06 03:13:07;;;;;;;28.27;16.13;;;0.60;99.90;;;;;;5061055;28;20557;-69
2023/02/06 03:15:41;;;;;;;31.90;16.03;;;0.70;99.90;;;;;;5060771;28;20492;-71
2023/02/06 03:18:12;;;;;;;28.57;16.37;;;0.70;99.90;;;;;;5055650;28;20459;-70
2023/02/06 03:20:43;;;;;;;28.17;15.80;;;0.60;99.90;;;;;;5055039;28;20457;-70
2023/02/06 03:23:16;;;;;;;32.60;16.00;;;0.60;99.90;;;;;;5054436;28;20474;-72
2023/02/06 03:25:45;;;;;;;30.47;16.60;;;0.60;99.90;;;;;;5062653;28;20482;-70
2023/02/06 03:28:17;;;;;;;31.73;16.10;;;0.50;99.90;;;;;;5061918;28;20463;-69
2023/02/06 03:30:47;;;;;;;31.57;16.70;;;0.50;99.90;;;;;;5055226;28;20458;-71
2023/02/06 03:33:17;;;;;;;17.13;15.43;;;0.50;99.90;;;;;;5060453;28;20470;-72
2023/02/06 03:35:45;;;;;;;28.33;15.70;;;0.50;99.90;;;;;;5058657;28;20894;-72
2023/02/06 03:38:14;;;;;;;34.63;17.93;;;0.50;99.90;;;;;;5058199;28;20466;-70
2023/02/06 03:40:45;;;;;;;26.43;16.77;;;0.50;99.90;;;;;;5057924;28;20526;-71
2023/02/06 03:43:17;;;;;;;37.90;17.40;;;0.50;99.90;;;;;;5062527;28;21020;-72
2023/02/06 03:45:48;;;;;;;24.40;16.87;;;0.40;99.90;;;;;;5057707;28;20463;-75
2023/02/06 03:48:18;;;;;;;25.00;17.30;;;0.30;99.90;;;;;;5057673;28;20995;-71
2023/02/06 03:50:50;;;;;;;30.53;16.73;;;0.20;99.90;;;;;;5057626;28;20916;-72
2023/02/06 03:53:21;;;;;;;28.77;16.90;;;0.00;99.90;;;;;;5059826;28;20970;-71
2023/02/06 03:55:50;;;;;;;22.13;16.80;;;-0.10;99.90;;;;;;5058601;28;20494;-73
2023/02/06 03:58:17;;;;;;;32.93;17.00;;;-0.10;99.90;;;;;;5059945;28;20459;-70
2023/02/06 04:00:45;;;;;;;21.43;16.53;;;-0.10;99.90;;;;;;5064426;28;20595;-72
2023/02/06 04:03:14;;;;;;;31.70;18.10;;;0.00;99.90;;;;;;5051176;28;20466;-70
2023/02/06 04:05:41;;;;;;;28.73;17.23;;;0.00;99.90;;;;;;5053513;28;20459;-69
2023/02/06 04:08:08;;;;;;;34.70;17.93;;;0.00;99.90;;;;;;5061305;28;20455;-70
2023/02/06 04:10:36;;;;;;;23.87;17.37;;;0.00;99.90;;;;;;5051062;28;20481;-72
2023/02/06 04:13:03;;;;;;;42.87;18.30;;;0.00;99.90;;;;;;5064170;28;20820;-71
2023/02/06 04:15:30;;;;;;;26.70;17.83;;;0.00;99.90;;;;;;5058036;28;20497;-70
2023/02/06 04:17:57;;;;;;;28.60;17.37;;;-0.10;99.90;;;;;;5054722;28;20470;-71
2023/02/06 04:20:24;;;;;;;43.63;17.87;;;-0.10;99.90;;;;;;5050578;28;20467;-71
2023/02/06 04:22:52;;;;;;;33.60;17.20;;;-0.10;99.90;;;;;;5044871;28;20460;-69
2023/02/06 04:25:19;;;;;;;40.77;17.70;;;-0.10;99.90;;;;;;5061988;28;20459;-70
2023/02/06 04:27:47;;;;;;;26.97;17.73;;;-0.10;99.90;;;;;;5063329;28;20770;-70
2023/02/06 04:30:14;;;;;;;33.00;18.20;;;0.00;99.90;;;;;;5057135;28;20467;-72
2023/02/06 04:32:41;;;;;;;26.53;18.63;;;0.00;99.90;;;;;;5055264;28;20494;-72
2023/02/06 04:35:08;;;;;;;26.77;17.20;;;0.00;99.90;;;;;;5054645;28;20540;-72
2023/02/06 04:37:36;;;;;;;35.90;18.57;;;0.10;99.90;;;;;;5055321;28;20462;-71
2023/02/06 04:40:03;;;;;;;33.03;15.90;;;0.10;99.90;;;;;;5051060;28;20459;-72
2023/02/06 04:42:30;;;;;;;30.70;13.10;;;0.20;99.90;;;;;;5063876;28;20552;-69
2023/02/06 04:44:58;;;;;;;46.60;14.10;;;0.20;99.90;;;;;;5053002;28;20470;-71
2023/02/06 04:47:25;;;;;;;39.87;14.70;;;0.30;99.90;;;;;;5057867;28;20473;-71
2023/02/06 04:49:52;;;;;;;25.90;13.33;;;0.30;99.90;;;;;;5057020;28;20517;-70
2023/02/06 04:52:20;;;;;;;28.37;12.43;;;0.20;99.90;;;;;;5057999;28;20470;-70
2023/02/06 04:54:46;;;;;;;19.03;12.87;;;0.20;99.90;;;;;;5059180;28;20493;-71
2023/02/06 04:57:13;;;;;;;26.63;12.60;;;0.20;99.90;;;;;;5058076;28;20461;-70
2023/02/06 04:59:40;;;;;;;27.43;13.33;;;0.20;99.90;;;;;;5061390;28;20493;-70
2023/02/06 05:02:08;;;;;;;24.53;13.47;;;0.30;99.90;;;;;;5051463;28;20456;-72
2023/02/06 05:04:37;;;;;;;31.37;14.33;;;0.30;99.90;;;;;;5057121;28;21106;-71
2023/02/06 05:07:04;;;;;;;27.23;14.13;;;0.40;99.90;;;;;;5065576;28;20466;-69
2023/02/06 05:09:31;;;;;;;24.20;15.10;;;0.50;99.90;;;;;;5055021;28;20463;-71
2023/02/06 05:11:58;;;;;;;46.97;16.97;;;0.50;99.90;;;;;;5050883;28;20836;-70
2023/02/06 05:14:25;;;;;;;35.13;15.60;;;0.60;99.90;;;;;;5046230;28;20502;-71
2023/02/06 05:16:52;;;;;;;23.73;16.17;;;0.70;99.90;;;;;;5061744;28;20466;-72
2023/02/06 05:19:20;;;;;;;48.67;16.07;;;0.80;99.90;;;;;;5055584;28;20455;-72
2023/02/06 05:21:47;;;;;;;73.80;17.63;;;0.90;99.90;;;;;;5060416;28;20504;-71
2023/02/06 05:24:14;;;;;;;75.37;18.30;;;0.90;99.90;;;;;;5052635;28;20474;-72
2023/02/06 05:26:40;;;;;;;76.30;19.77;;;0.90;99.90;;;;;;5057465;28;20474;-72
2023/02/06 05:29:07;;;;;;;62.87;21.63;;;1.00;99.90;;;;;;5050234;28;20479;-71
2023/02/06 05:31:35;;;;;;;49.67;19.53;;;1.00;99.90;;;;;;5044256;28;20468;-69
2023/02/06 05:34:02;;;;;;;113.50;23.73;;;1.10;99.90;;;;;;5046349;28;20462;-71
2023/02/06 05:36:30;;;;;;;84.93;19.83;;;1.20;99.90;;;;;;5054456;28;20555;-71
2023/02/06 05:38:57;;;;;;;67.40;20.43;;;1.20;99.90;;;;;;5057062;28;20463;-70
2023/02/06 05:41:23;;;;;;;127.00;21.83;;;1.20;99.90;;;;;;5056700;28;20491;-71
2023/02/06 05:43:50;;;;;;;86.53;21.20;;;1.10;99.90;;;;;;5060732;28;20468;-71
2023/02/06 05:46:18;;;;;;;88.67;21.03;;;1.10;99.90;;;;;;5060405;28;20459;-69
2023/02/06 05:48:44;;;;;;;61.10;20.60;;;1.10;99.90;;;;;;5049392;28;20470;-71
2023/02/06 05:51:11;;;;;;;55.43;20.73;;;1.20;99.90;;;;;;5052685;28;20533;-69
2023/02/06 05:53:39;;;;;;;84.40;19.97;;;1.20;99.90;;;;;;5057775;28;20977;-70
2023/02/06 05:56:06;;;;;;;166.87;23.23;;;1.30;99.90;;;;;;5054364;28;20494;-70
2023/02/06 05:58:33;;;;;;;179.20;23.10;;;1.40;99.90;;;;;;5057040;28;21383;-70
2023/02/06 06:01:00;;;;;;;120.20;21.57;;;1.30;99.90;;;;;;5056628;28;20464;-70
2023/02/06 06:03:27;;;;;;;185.17;24.30;;;1.30;99.90;;;;;;5059026;28;20497;-71
2023/02/06 06:05:54;;;;;;;212.53;24.10;;;1.30;99.90;;;;;;5060091;28;20538;-68
2023/02/06 06:08:21;;;;;;;133.40;21.57;;;1.30;99.90;;;;;;5058429;28;21021;-69
2023/02/06 06:10:51;;;;;;;215.03;23.73;;;1.30;99.90;;;;;;5056766;28;20473;-70
2023/02/06 06:13:18;;;;;;;193.53;24.10;;;1.30;99.90;;;;;;5052908;28;20473;-69
2023/02/06 06:15:45;;;;;;;203.57;22.33;;;1.30;99.90;;;;;;5056973;28;20490;-70
2023/02/06 06:18:12;;;;;;;103.03;21.37;;;1.40;99.90;;;;;;5052631;28;20589;-70
2023/02/06 06:20:39;;;;;;;149.83;20.33;;;1.30;99.90;;;;;;5061530;28;20463;-70
2023/02/06 06:23:05;;;;;;;118.50;19.83;;;1.30;99.90;;;;;;5053991;28;20456;-70
2023/02/06 06:25:33;;;;;;;141.80;19.83;;;1.40;99.90;;;;;;5055850;28;20853;-70
2023/02/06 06:28:01;;;;;;;118.73;20.33;;;1.40;99.90;;;;;;5056046;28;20575;-71
2023/02/06 06:30:28;;;;;;;127.27;21.83;;;1.40;99.90;;;;;;5058573;28;20473;-70
2023/02/06 06:32:55;;;;;;;132.67;19.33;;;1.40;99.90;;;;;;5055210;28;20471;-69
2023/02/06 06:35:22;;;;;;;162.53;19.97;;;1.40;99.90;;;;;;5052836;28;20523;-69
2023/02/06 06:37:49;;;;;;;102.40;17.10;;;1.40;99.90;;;;;;5051029;28;20580;-70
2023/02/06 06:40:15;;;;;;;137.70;19.00;;;1.40;99.90;;;;;;5055115;28;21013;-71
2023/02/06 06:42:42;;;;;;;232.77;19.67;;;1.50;99.90;;;;;;5051205;28;20481;-69
2023/02/06 06:45:10;;;;;;;178.30;18.00;;;1.50;99.90;;;;;;5057164;28;20470;-71
2023/02/06 06:47:37;;;;;;;297.27;20.93;;;1.50;99.90;;;;;;5049248;28;20494;-70
2023/02/06 06:50:05;;;;;;;127.83;17.90;;;1.50;99.90;;;;;;5050207;28;20462;-69
2023/02/06 06:52:32;;;;;;;185.23;18.67;;;1.60;99.90;;;;;;5054588;28;20451;-69
2023/02/06 06:54:59;;;;;;;118.93;18.73;;;1.50;99.90;;;;;;5054018;28;20489;-70
2023/02/06 06:57:26;;;;;;;95.07;20.30;;;1.40;99.90;;;;;;5052883;28;20997;-69
2023/02/06 06:59:53;;;;;;;138.57;19.40;;;1.50;99.90;;;;;;5054575;28;20514;-69
2023/02/06 07:02:21;;;;;;;156.90;20.70;;;1.40;99.90;;;;;;5059617;28;20470;-70
2023/02/06 07:04:48;;;;;;;170.20;20.10;;;1.40;99.90;;;;;;5060332;28;20512;-69
2023/02/06 07:07:15;;;;;;;149.73;20.40;;;1.40;99.90;;;;;;5055851;28;21083;-70
2023/02/06 07:09:43;;;;;;;104.13;19.37;;;1.40;99.90;;;;;;5052937;28;20466;-70
2023/02/06 07:12:10;;;;;;;152.70;20.73;;;1.40;99.90;;;;;;5046308;28;20974;-71
2023/02/06 07:14:36;;;;;;;145.17;18.50;;;1.50;99.90;;;;;;5054725;28;20460;-69
2023/02/06 07:17:03;;;;;;;144.93;18.53;;;1.50;99.90;;;;;;5063609;28;20454;-70
2023/02/06 07:19:31;;;;;;;277.83;21.80;;;1.40;99.90;;;;;;5054092;28;20465;-70
2023/02/06 07:21:58;;;;;;;150.33;19.70;;;1.50;99.90;;;;;;5052449;28;20918;-70
2023/02/06 07:24:25;;;;;;;188.03;20.00;;;1.60;99.90;;;;;;5049088;28;20873;-70
2023/02/06 07:26:51;;;;;;;88.03;19.10;;;1.50;99.90;;;;;;5061261;28;20486;-69
2023/02/06 07:29:20;;;;;;;106.33;17.10;;;1.40;99.90;;;;;;5055094;28;20478;-69
2023/02/06 07:31:47;;;;;;;265.90;22.07;;;1.40;99.90;;;;;;5050222;28;20536;-68
2023/02/06 07:34:15;;;;;;;127.30;20.60;;;1.40;99.90;;;;;;5054206;28;20822;-71
2023/02/06 07:36:43;;;;;;;106.37;19.77;;;1.40;99.90;;;;;;5049482;28;20531;-68
2023/02/06 07:39:10;;;;;;;136.77;20.37;;;1.40;99.90;;;;;;5052195;28;20864;-68
2023/02/06 07:41:37;;;;;;;144.00;18.50;;;1.40;99.90;;;;;;5055807;28;20857;-69
2023/02/06 07:44:04;;;;;;;138.70;18.50;;;1.50;99.90;;;;;;5051530;28;20988;-70
2023/02/06 07:46:33;;;;;;;130.00;18.90;;;1.50;99.90;;;;;;5052322;28;20473;-70
2023/02/06 07:49:00;;;;;;;259.17;20.30;;;1.50;99.90;;;;;;5052060;28;21028;-70
2023/02/06 07:51:27;;;;;;;111.63;17.57;;;1.60;99.90;;;;;;5038500;28;20487;-71
2023/02/06 07:53:55;;;;;;;82.83;17.97;;;1.50;99.90;;;;;;5052136;28;20935;-69
2023/02/06 07:56:24;;;;;;;101.17;19.70;;;1.50;99.90;;;;;;5044111;28;20587;-70
2023/02/06 07:58:51;;;;;;;129.57;20.30;;;1.50;99.90;;;;;;5055259;28;20459;-68
2023/02/06 08:01:18;;;;;;;81.60;19.53;;;1.50;99.90;;;;;;5057992;28;20462;-71
2023/02/06 08:03:46;;;;;;;122.43;20.00;;;1.60;99.90;;;;;;5058839;28;20520;-68
2023/02/06 08:06:15;;;;;;;218.10;22.40;;;1.60;99.90;;;;;;5054843;28;20528;-68
2023/02/06 08:08:42;;;;;;;83.57;19.70;;;1.70;99.90;;;;;;5062371;28;20463;-69
2023/02/06 08:11:13;;;;;;;112.77;21.27;;;1.70;99.90;;;;;;5055052;28;20464;-69
2023/02/06 08:13:41;;;;;;;91.13;20.10;;;1.80;99.90;;;;;;5057784;28;20474;-70
2023/02/06 08:16:11;;;;;;;91.27;20.70;;;1.80;99.90;;;;;;5056103;28;20548;-70
2023/02/06 08:18:38;;;;;;;100.17;21.17;;;1.90;99.90;;;;;;5054895;28;20468;-70
2023/02/06 08:21:06;;;;;;;115.67;21.53;;;2.00;99.90;;;;;;5052242;28;20469;-69
2023/02/06 08:23:34;;;;;;;183.40;22.90;;;2.00;99.90;;;;;;5062511;28;20462;-70
2023/02/06 08:26:02;;;;;;;92.93;22.80;;;2.10;99.90;;;;;;5057285;28;20672;-71
2023/02/06 08:28:31;;;;;;;196.20;23.63;;;2.10;99.90;;;;;;5057553;28;20810;-69
2023/02/06 08:30:58;;;;;;;90.13;24.13;;;2.10;99.90;;;;;;5056787;28;20478;-71
2023/02/06 08:33:25;;;;;;;76.97;21.73;;;2.20;99.90;;;;;;5057915;28;20460;-69
2023/02/06 08:35:52;;;;;;;45.97;25.30;;;2.20;99.90;;;;;;5055395;28;20494;-69
2023/02/06 08:38:19;;;;;;;94.10;25.20;;;2.30;99.90;;;;;;5056478;28;20459;-70
2023/02/06 08:40:46;;;;;;;114.10;25.80;;;2.20;99.90;;;;;;5058487;28;20463;-71
2023/02/06 08:43:13;;;;;;;100.63;24.30;;;2.20;99.90;;;;;;5049371;28;21018;-70
2023/02/06 08:45:42;;;;;;;77.60;23.00;;;2.20;99.90;;;;;;5053903;28;20463;-69
2023/02/06 08:48:09;;;;;;;94.53;22.27;;;2.20;99.90;;;;;;5047491;28;20463;-70
2023/02/06 08:50:36;;;;;;;48.17;22.10;;;2.20;99.90;;;;;;5057872;28;20498;-72
2023/02/06 08:53:02;;;;;;;44.40;23.07;;;2.30;99.90;;;;;;5053733;28;20825;-71
2023/02/06 08:55:30;;;;;;;56.77;23.77;;;2.30;99.90;;;;;;5055364;28;20492;-71
2023/02/06 08:57:57;;;;;;;114.90;26.37;;;2.40;99.90;;;;;;5063348;28;20489;-72
2023/02/06 09:00:25;;;;;;;62.57;23.70;;;2.40;99.90;;;;;;5059417;28;20490;-71
2023/02/06 09:02:53;;;;;;;69.67;26.70;;;2.50;99.90;;;;;;5052445;28;20917;-70
2023/02/06 09:05:20;;;;;;;143.93;29.57;;;2.50;99.90;;;;;;5048000;28;20463;-71
2023/02/06 09:07:47;;;;;;;198.80;28.90;;;2.60;99.90;;;;;;5059054;28;20843;-72
2023/02/06 09:10:15;;;;;;;138.63;25.10;;;2.60;99.90;;;;;;5050064;28;20463;-72
2023/02/06 09:12:41;;;;;;;62.30;25.80;;;2.80;99.90;;;;;;5045042;28;20821;-71
2023/02/06 09:15:09;;;;;;;123.23;25.27;;;2.80;99.90;;;;;;5054372;28;20993;-71
2023/02/06 09:17:36;;;;;;;116.00;23.17;;;3.00;99.90;;;;;;5061847;28;20489;-70
2023/02/06 09:20:05;;;;;;;163.43;27.80;;;3.20;99.90;;;;;;5040530;28;20472;-72
2023/02/06 09:22:34;;;;;;;101.00;21.80;;;3.30;99.90;;;;;;5041236;28;20493;-70
2023/02/06 09:25:01;;;;;;;97.27;21.63;;;3.30;99.90;;;;;;5053709;28;20463;-72
2023/02/06 09:27:28;;;;;;;149.63;22.40;;;3.40;99.90;;;;;;5049680;28;20468;-72
2023/02/06 09:29:56;;;;;;;28.60;20.70;;;3.60;99.90;;;;;;5045760;28;20476;-70
2023/02/06 09:32:22;;;;;;;65.83;23.87;;;3.60;99.90;;;;;;5048530;28;20473;-70
2023/02/06 09:34:49;;;;;;;39.97;18.97;;;3.90;99.90;;;;;;5041784;28;20905;-73
2023/02/06 09:37:17;;;;;;;31.60;18.77;;;4.20;99.90;;;;;;5052015;28;20517;-71
2023/02/06 09:39:45;;;;;;;27.47;16.50;;;4.30;99.90;;;;;;5053228;28;20461;-72
2023/02/06 09:42:17;;;;;;;44.67;20.53;;;4.10;99.90;;;;;;5062698;28;20494;-71
2023/02/06 09:44:50;;;;;;;40.73;20.13;;;4.10;99.90;;;;;;5056775;28;20472;-71
2023/02/06 09:47:23;;;;;;;62.70;18.77;;;4.30;99.90;;;;;;5053560;28;20481;-72
2023/02/06 09:49:54;;;;;;;53.83;18.27;;;4.50;99.90;;;;;;5058884;28;20457;-69
2023/02/06 09:52:34;;;;;;;58.93;16.80;;;4.60;99.90;;;;;;5052612;28;20471;-73
2023/02/06 09:55:08;;;;;;;23.40;16.77;;;4.60;99.90;;;;;;5050711;28;20863;-71
2023/02/06 09:57:43;;;;;;;51.50;18.77;;;4.60;99.90;;;;;;5058951;28;20494;-72
2023/02/06 10:00:20;;;;;;;35.37;15.57;;;4.70;99.90;;;;;;5054739;28;20476;-72
2023/02/06 10:03:00;;;;;;;53.50;16.67;;;4.60;99.90;;;;;;5055935;28;20473;-73
2023/02/06 10:05:39;;;;;;;27.70;17.47;;;4.70;99.90;;;;;;5051018;28;20470;-72
2023/02/06 10:08:16;;;;;;;37.93;16.30;;;4.90;99.90;;;;;;5048331;28;20495;-73
2023/02/06 10:10:46;;;;;;;21.73;16.30;;;5.00;99.90;;;;;;5053667;28;20468;-69
2023/02/06 10:13:17;;;;;;;27.43;16.63;;;5.00;99.90;;;;;;5053357;28;20797;-70
2023/02/06 10:15:47;;;;;;;26.33;17.83;;;4.70;99.90;;;;;;5044690;28;20852;-73
2023/02/06 10:18:18;;;;;;;30.77;17.47;;;5.10;99.90;;;;;;5040975;28;20467;-70
2023/02/06 10:20:50;;;;;;;40.57;18.83;;;5.30;99.90;;;;;;5050936;28;20470;-72
2023/02/06 10:23:28;;;;;;;33.53;17.60;;;5.20;99.90;;;;;;5047592;28;20498;-72
2023/02/06 10:26:04;;;;;;;31.50;19.43;;;5.30;99.90;;;;;;5051486;28;20462;-72
2023/02/06 10:28:34;;;;;;;36.57;18.63;;;5.40;99.90;;;;;;5044076;28;20468;-73
2023/02/06 10:31:27;;;;;;;29.77;17.90;;;5.70;99.90;;;;;;5047583;28;20476;-72
2023/02/06 10:34:10;;;;;;;29.17;17.77;;;5.80;99.90;;;;;;5046657;28;20707;-71
2023/02/06 10:36:49;;;;;;;30.43;18.60;;;5.80;99.90;;;;;;5048087;28;20547;-72
2023/02/06 10:39:42;;;;;;;27.93;18.83;;;5.80;99.90;;;;;;5041052;28;20525;-70
2023/02/06 10:42:16;;;;;;;30.10;18.03;;;5.90;99.90;;;;;;5053466;28;20505;-71
2023/02/06 10:44:49;;;;;;;36.10;18.60;;;5.50;99.90;;;;;;5056748;28;20988;-70
2023/02/06 10:47:26;;;;;;;30.30;20.17;;;5.60;99.90;;;;;;5054521;28;20466;-72
2023/02/06 10:50:00;;;;;;;29.17;19.97;;;5.70;99.90;;;;;;5056468;28;20474;-73
2023/02/06 10:52:29;;;;;;;31.03;20.13;;;5.60;99.90;;;;;;5053666;28;20953;-72
2023/02/06 10:55:00;;;;;;;31.30;19.47;;;5.90;99.90;;;;;;5056531;28;20561;-70
2023/02/06 10:57:28;;;;;;;34.10;19.57;;;6.10;99.90;;;;;;5053751;28;20489;-72
2023/02/06 10:59:59;;;;;;;27.13;18.33;;;6.20;99.90;;;;;;5052921;28;20492;-73
2023/02/06 11:02:30;;;;;;;33.07;18.50;;;6.10;99.90;;;;;;5047279;28;20468;-72
2023/02/06 11:05:03;;;;;;;27.90;17.13;;;5.90;99.90;;;;;;5054900;28;20465;-72
2023/02/06 11:07:33;;;;;;;31.17;18.63;;;5.80;99.90;;;;;;5054537;28;20464;-72
2023/02/06 11:10:01;;;;;;;35.10;20.73;;;5.80;99.90;;;;;;5049045;28;20521;-70
2023/02/06 11:12:34;;;;;;;43.13;21.50;;;5.90;99.90;;;;;;5054340;28;20467;-71
2023/02/06 11:15:04;;;;;;;40.20;21.10;;;6.00;99.90;;;;;;5049795;28;20568;-73
2023/02/06 11:17:31;;;;;;;33.27;22.07;;;6.30;99.90;;;;;;5052024;28;20905;-71
2023/02/06 11:20:05;;;;;;;41.60;22.90;;;6.50;99.90;;;;;;5055919;28;20812;-74
2023/02/06 11:22:32;;;;;;;34.97;23.43;;;6.50;99.90;;;;;;5049331;28;20459;-72
2023/02/06 11:25:04;;;;;;;33.27;23.17;;;6.30;99.90;;;;;;5051384;28;20885;-73
2023/02/06 11:27:33;;;;;;;30.90;23.10;;;6.10;99.90;;;;;;5057988;28;21052;-70
2023/02/06 11:30:06;;;;;;;32.43;23.53;;;6.10;99.90;;;;;;5056195;28;20463;-70
2023/02/06 11:32:36;;;;;;;42.23;25.00;;;6.00;99.90;;;;;;5052310;28;20456;-74
2023/02/06 11:35:07;;;;;;;40.87;24.90;;;5.70;99.90;;;;;;5058156;28;20466;-72
2023/02/06 11:37:37;;;;;;;42.97;27.23;;;5.60;99.90;;;;;;5050637;28;20852;-73
2023/02/06 11:40:27;;;;;;;35.40;25.13;;;5.80;99.90;;;;;;5053755;28;20491;-70
2023/02/06 11:43:17;;;;;;;37.43;24.90;;;6.10;99.90;;;;;;5053106;28;20849;-72
2023/02/06 11:45:45;;;;;;;43.73;26.53;;;6.20;99.90;;;;;;5054080;28;20545;-70
2023/02/06 11:48:31;;;;;;;41.10;25.60;;;6.40;99.90;;;;;;5048990;28;20467;-72
2023/02/06 11:50:59;;;;;;;39.67;27.60;;;6.30;99.90;;;;;;5052676;28;20458;-73
2023/02/06 11:53:25;;;;;;;38.90;26.10;;;6.40;99.90;;;;;;5057689;28;21054;-71
2023/02/06 11:56:01;;;;;;;34.73;27.57;;;6.30;99.90;;;;;;5058416;28;20452;-71
2023/02/06 11:58:31;;;;;;;44.13;26.50;;;6.20;99.90;;;;;;5061833;28;20462;-71
2023/02/06 12:01:03;;;;;;;46.70;28.27;;;6.20;99.90;;;;;;5057399;28;20486;-70
2023/02/06 12:03:33;;;;;;;42.43;27.67;;;6.20;99.90;;;;;;5056200;28;21030;-74
2023/02/06 12:06:11;;;;;;;44.57;28.67;;;6.50;99.90;;;;;;5051882;28;21019;-68
2023/02/06 12:08:46;;;;;;;39.80;29.73;;;6.50;99.90;;;;;;5052902;28;20473;-71
2023/02/06 12:11:21;;;;;;;47.27;29.17;;;6.40;99.90;;;;;;5058967;28;20469;-72
2023/02/06 12:13:52;;;;;;;57.57;27.73;;;6.00;99.90;;;;;;5059413;28;20499;-72
2023/02/06 12:16:24;;;;;;;41.73;28.90;;;5.90;99.90;;;;;;5040594;28;20467;-72
2023/02/06 12:18:53;;;;;;;42.23;26.50;;;5.80;99.90;;;;;;5049953;28;20497;-73
2023/02/06 12:21:26;;;;;;;53.70;27.70;;;5.80;99.90;;;;;;5050846;28;20455;-71
2023/02/06 12:23:55;;;;;;;48.53;27.73;;;5.70;99.90;;;;;;5056767;28;20502;-71
2023/02/06 12:26:28;;;;;;;43.33;27.03;;;6.30;99.90;;;;;;5055614;28;20827;-71
2023/02/06 12:29:00;;;;;;;42.93;27.00;;;7.30;99.90;;;;;;5047316;28;20562;-71
2023/02/06 12:31:35;;;;;;;33.80;24.33;;;8.20;99.90;;;;;;5048603;28;20472;-72
2023/02/06 12:34:10;;;;;;;36.83;25.23;;;8.70;99.90;;;;;;5061719;28;20474;-72
2023/02/06 12:36:50;;;;;;;37.87;25.00;;;9.10;99.90;;;;;;5045702;28;20479;-73
2023/02/06 12:39:19;;;;;;;33.03;26.30;;;9.40;99.90;;;;;;5061928;28;20469;-71
2023/02/06 12:42:00;;;;;;;38.67;27.80;;;9.60;99.90;;;;;;5055318;28;20526;-72
2023/02/06 12:44:33;;;;;;;30.43;24.17;;;10.20;99.90;;;;;;5049903;28;20463;-71
2023/02/06 12:47:06;;;;;;;30.47;25.70;;;11.30;99.90;;;;;;5055331;28;20462;-72